Rockefeller, Pennsylvania
Current Conditions -  °F | °C
As of 12:53 PM on Thursday 27 Nov 2014 (Local Time) from KSEG Reporting Station
Overcast Overcast  
Wind Chill: 36°   Ceiling: 3100
Heat Index: 36°   Visibility: 10mi
Dew Point: 27°   Wind: 3mph
Humidity: 70%   Direction: 340°NNW
Pressure: 30.03"   Gusts: NA
Location:  40.83°N, 76.761°W
Report Text: KSEG 271753Z AUTO 34003KT 10SM FEW023 BKN031 OVC060 02/M03 A3003 RMK AO2 SLP175 T00221028 10022 21011 58006
Loading
Personal Weather Stations






























Interactive Weather Map New forecast layout! Learn more

10-Day Weather Forecast

Advertisements
Track Severe Weather on mobile